TimeEST,TemperatureF,Dew PointF,Humidity,Sea Level PressureIn,VisibilityMPH,Wind Direction,Wind SpeedMPH,Gust SpeedMPH,PrecipitationIn,Events,Conditions,WindDirDegrees,DateUTC
12:53 AM,30.0,19.9,66,30.27,10.0,WSW,10.4,-,N/A,,Clear,250,2012-11-29 05:53:00
1:53 AM,30.0,19.9,66,30.27,10.0,West,9.2,-,N/A,,Clear,260,2012-11-29 06:53:00
2:53 AM,27.0,19.9,75,30.29,10.0,West,9.2,-,N/A,,Clear,270,2012-11-29 07:53:00
3:53 AM,30.0,19.9,66,30.29,10.0,West,15.0,-,N/A,,Clear,260,2012-11-29 08:53:00
4:53 AM,30.0,21.0,69,30.28,10.0,WSW,13.8,-,N/A,,Clear,240,2012-11-29 09:53:00
5:53 AM,30.9,21.0,67,30.28,10.0,WSW,10.4,-,N/A,,Clear,240,2012-11-29 10:53:00
6:53 AM,33.1,21.0,61,30.28,10.0,SW,16.1,-,N/A,,Clear,230,2012-11-29 11:53:00
6:59 AM,33.8,19.4,56,30.24,10.0,WSW,15.0,-,N/A,,Mostly Cloudy,240,2012-11-29 11:59:00
7:53 AM,35.1,23.0,61,30.28,10.0,WSW,12.7,-,N/A,,Mostly Cloudy,240,2012-11-29 12:53:00
8:53 AM,37.9,26.1,62,30.28,10.0,SW,11.5,-,N/A,,Mostly Cloudy,230,2012-11-29 13:53:00
9:53 AM,41.0,25.0,53,30.27,10.0,WSW,12.7,-,N/A,,Mostly Cloudy,250,2012-11-29 14:53:00
10:53 AM,44.1,24.1,45,30.27,10.0,WSW,17.3,25.3,N/A,,Mostly Cloudy,250,2012-11-29 15:53:00
11:53 AM,45.0,21.9,40,30.25,10.0,WSW,20.7,33.4,N/A,,Scattered Clouds,250,2012-11-29 16:53:00
12:53 PM,45.0,30.9,58,30.22,10.0,WSW,21.9,26.5,N/A,,Mostly Cloudy,240,2012-11-29 17:53:00
1:53 PM,45.0,28.0,52,30.22,10.0,WSW,17.3,27.6,N/A,,Mostly Cloudy,250,2012-11-29 18:53:00
2:53 PM,45.0,30.0,56,30.22,10.0,WSW,17.3,24.2,N/A,,Mostly Cloudy,240,2012-11-29 19:53:00
3:53 PM,43.0,28.9,58,30.22,10.0,WSW,16.1,25.3,N/A,,Mostly Cloudy,240,2012-11-29 20:53:00
4:53 PM,41.0,28.9,62,30.22,10.0,WSW,16.1,-,N/A,,Mostly Cloudy,240,2012-11-29 21:53:00
5:53 PM,39.9,28.9,65,30.24,10.0,WSW,15.0,-,N/A,,Mostly Cloudy,250,2012-11-29 22:53:00
6:53 PM,39.9,28.9,65,30.26,10.0,West,11.5,-,N/A,,Overcast,260,2012-11-29 23:53:00
7:53 PM,41.0,28.9,62,30.27,10.0,West,12.7,-,N/A,,Overcast,270,2012-11-30 00:53:00
8:53 PM,39.9,28.9,65,30.29,10.0,WNW,12.7,-,N/A,,Overcast,290,2012-11-30 01:53:00
9:53 PM,39.9,28.9,65,30.29,10.0,WNW,6.9,-,N/A,,Overcast,300,2012-11-30 02:53:00
10:53 PM,37.9,30.9,76,30.30,10.0,NNE,12.7,-,N/A,,Overcast,20,2012-11-30 03:53:00
11:53 PM,36.0,30.0,79,30.31,10.0,ENE,6.9,-,N/A,,Overcast,60,2012-11-30 04:53:00